Time;durP1;ratioP1;P1;durP2;ratioP2;P2;SDS_P1;SDS_P2;PMS_P1;PMS_P2;Temp;Humidity;BMP_temperature;BMP_pressure;BME280_temperature;BME280_humidity;BME280_pressure;Samples;Min_cycle;Max_cycle;Signal;HPM_P1;HPM_P2
2021/04/24 00:00:28;;;;;;;9.90;6.33;;;9.70;76.00;;;;;;6250963;28;20490;-66
2021/04/24 00:03:30;;;;;;;9.17;6.23;;;9.70;76.50;;;;;;6251347;28;20487;-66
2021/04/24 00:06:33;;;;;;;5.90;5.30;;;9.60;76.80;;;;;;6237664;28;20806;-63
2021/04/24 00:09:35;;;;;;;7.53;6.10;;;9.70;79.50;;;;;;6248720;28;20987;-64
2021/04/24 00:12:37;;;;;;;7.60;6.40;;;9.70;79.70;;;;;;6248140;28;20482;-64
2021/04/24 00:15:41;;;;;;;7.13;6.40;;;9.70;79.70;;;;;;6248985;28;20482;-59
2021/04/24 00:18:43;;;;;;;12.20;8.00;;;9.70;80.50;;;;;;6248957;28;20478;-60
2021/04/24 00:21:48;;;;;;;12.33;7.23;;;9.70;80.10;;;;;;6250035;28;20471;-61
2021/04/24 00:24:50;;;;;;;7.23;6.47;;;9.70;80.30;;;;;;6250621;28;20499;-61
2021/04/24 00:27:52;;;;;;;8.90;7.17;;;9.70;80.80;;;;;;6250909;28;20470;-60
2021/04/24 00:30:54;;;;;;;8.93;7.00;;;9.60;80.80;;;;;;6249896;28;20477;-60
2021/04/24 00:33:57;;;;;;;7.00;6.20;;;9.70;81.70;;;;;;6250840;28;20479;-65
2021/04/24 00:37:00;;;;;;;7.93;6.77;;;9.70;81.00;;;;;;6251400;28;20489;-64
2021/04/24 00:40:04;;;;;;;6.97;5.40;;;9.70;81.20;;;;;;6251241;28;20617;-65
2021/04/24 00:43:07;;;;;;;7.53;6.10;;;9.60;81.40;;;;;;6251230;28;20477;-64
2021/04/24 00:46:09;;;;;;;7.00;5.83;;;9.60;80.90;;;;;;6251188;28;20930;-64
2021/04/24 00:49:12;;;;;;;6.87;6.17;;;9.40;80.20;;;;;;6250705;28;20439;-64
2021/04/24 00:52:16;;;;;;;6.63;5.90;;;9.40;81.10;;;;;;6246227;28;20453;-65
2021/04/24 00:55:18;;;;;;;6.73;5.83;;;9.20;82.40;;;;;;6250617;28;20487;-64
2021/04/24 00:58:20;;;;;;;14.00;5.37;;;9.10;82.50;;;;;;6250902;28;20820;-64
2021/04/24 01:01:23;;;;;;;6.63;6.03;;;9.10;83.30;;;;;;6250880;28;20533;-65
2021/04/24 01:04:25;;;;;;;8.40;6.43;;;9.20;83.30;;;;;;6250380;28;20537;-65
2021/04/24 01:07:29;;;;;;;14.00;6.40;;;9.10;83.80;;;;;;6250957;28;21028;-64
2021/04/24 01:10:32;;;;;;;7.43;6.47;;;9.00;84.70;;;;;;6250322;28;20470;-65
2021/04/24 01:13:35;;;;;;;13.53;4.90;;;9.00;83.60;;;;;;6251095;28;20477;-64
2021/04/24 01:16:37;;;;;;;9.97;5.03;;;9.00;83.10;;;;;;6250160;28;20478;-65
2021/04/24 01:19:41;;;;;;;6.90;5.80;;;9.00;82.90;;;;;;6250350;28;20486;-64
2021/04/24 01:22:45;;;;;;;6.77;5.73;;;8.90;82.20;;;;;;6250200;28;20977;-64
2021/04/24 01:25:49;;;;;;;9.33;6.00;;;8.90;82.50;;;;;;6250454;28;20478;-65
2021/04/24 01:28:52;;;;;;;12.80;6.33;;;8.90;81.70;;;;;;6250193;28;20475;-64
2021/04/24 01:31:54;;;;;;;6.00;5.40;;;8.80;81.60;;;;;;6250206;28;20467;-64
2021/04/24 01:34:57;;;;;;;7.87;7.00;;;8.70;81.50;;;;;;6250161;28;20836;-65
2021/04/24 01:38:01;;;;;;;9.23;5.70;;;8.70;81.50;;;;;;6250277;28;20558;-65
2021/04/24 01:41:03;;;;;;;7.17;5.80;;;8.60;81.20;;;;;;6250263;28;20471;-65
2021/04/24 01:44:06;;;;;;;7.73;6.07;;;8.60;80.40;;;;;;6249501;28;20472;-64
2021/04/24 01:47:08;;;;;;;20.40;7.13;;;8.60;80.10;;;;;;6250443;28;20471;-64
2021/04/24 01:50:13;;;;;;;11.70;6.80;;;8.70;80.00;;;;;;6249730;28;20482;-64
2021/04/24 01:53:20;;;;;;;10.87;5.90;;;8.80;79.00;;;;;;6249606;28;20534;-65
2021/04/24 01:56:23;;;;;;;8.27;6.40;;;8.90;78.80;;;;;;6245358;28;20479;-64
2021/04/24 01:59:27;;;;;;;7.90;5.47;;;9.00;78.50;;;;;;6249498;28;20482;-64
2021/04/24 02:02:29;;;;;;;8.07;6.83;;;9.00;78.00;;;;;;6249861;28;20478;-64
2021/04/24 02:05:32;;;;;;;8.13;5.33;;;9.00;77.80;;;;;;6249681;28;20486;-64
2021/04/24 02:08:39;;;;;;;6.17;5.57;;;9.00;77.60;;;;;;6249843;28;21038;-64
2021/04/24 02:12:01;;;;;;;8.20;6.00;;;8.90;77.80;;;;;;6249856;28;20564;-62
2021/04/24 02:15:06;;;;;;;7.20;6.13;;;8.90;77.90;;;;;;6249385;28;20482;-64
2021/04/24 02:18:08;;;;;;;10.43;5.20;;;8.90;77.30;;;;;;6249732;28;20489;-63
2021/04/24 02:21:11;;;;;;;12.43;6.60;;;8.90;77.60;;;;;;6250156;28;20552;-64
2021/04/24 02:24:15;;;;;;;6.23;5.13;;;8.90;77.80;;;;;;6254376;28;20478;-63
2021/04/24 02:27:18;;;;;;;6.37;4.93;;;8.90;77.70;;;;;;6254447;28;20470;-64
2021/04/24 02:30:21;;;;;;;10.60;6.70;;;8.90;77.50;;;;;;6254032;28;20485;-63
2021/04/24 02:33:24;;;;;;;12.03;6.40;;;8.90;77.20;;;;;;6254021;28;20467;-64
2021/04/24 02:36:29;;;;;;;6.03;5.53;;;8.80;77.00;;;;;;6253917;28;20479;-62
2021/04/24 02:39:35;;;;;;;9.50;6.30;;;8.70;76.50;;;;;;6254015;28;20482;-62
2021/04/24 02:42:37;;;;;;;7.97;5.87;;;8.60;76.90;;;;;;6253679;28;20467;-63
2021/04/24 02:45:39;;;;;;;6.40;5.80;;;8.60;77.00;;;;;;6254132;28;20481;-63
2021/04/24 02:48:41;;;;;;;9.30;6.20;;;8.60;76.90;;;;;;6253466;28;20482;-63
2021/04/24 02:51:43;;;;;;;12.70;6.00;;;8.60;76.90;;;;;;6253728;28;20478;-63
2021/04/24 02:54:46;;;;;;;8.40;6.40;;;8.50;77.30;;;;;;6253395;28;20476;-64
2021/04/24 02:57:48;;;;;;;7.30;6.57;;;8.50;78.50;;;;;;6253604;28;20799;-63
2021/04/24 03:00:50;;;;;;;7.63;5.83;;;8.50;79.10;;;;;;6253123;28;20490;-63
2021/04/24 03:03:52;;;;;;;7.00;6.30;;;8.60;79.40;;;;;;6253111;28;20489;-63
2021/04/24 03:06:55;;;;;;;8.03;6.10;;;8.60;79.70;;;;;;6253323;28;20466;-63
2021/04/24 03:09:58;;;;;;;11.77;9.57;;;8.60;79.70;;;;;;6253066;28;20481;-64
2021/04/24 03:13:00;;;;;;;14.53;9.17;;;8.60;79.50;;;;;;6253252;28;20494;-63
2021/04/24 03:16:02;;;;;;;11.33;8.17;;;8.60;80.00;;;;;;6252851;28;20475;-64
2021/04/24 03:19:06;;;;;;;7.13;6.00;;;8.70;79.90;;;;;;6252951;28;20506;-64
2021/04/24 03:22:09;;;;;;;9.03;6.33;;;8.70;79.90;;;;;;6252879;28;20455;-62
2021/04/24 03:25:14;;;;;;;9.47;6.43;;;8.60;79.90;;;;;;6252586;28;20491;-63
2021/04/24 03:28:16;;;;;;;8.90;5.83;;;8.60;79.70;;;;;;6253132;28;20759;-63
2021/04/24 03:31:18;;;;;;;6.87;6.00;;;8.50;79.50;;;;;;6252645;28;20907;-63
2021/04/24 03:34:21;;;;;;;7.90;5.33;;;8.50;79.90;;;;;;6251455;28;20467;-63
2021/04/24 03:37:23;;;;;;;9.27;6.10;;;8.30;79.50;;;;;;6252424;28;20934;-63
2021/04/24 03:40:26;;;;;;;7.33;6.57;;;8.20;80.60;;;;;;6252433;28;20923;-64
2021/04/24 03:43:31;;;;;;;7.33;5.97;;;8.20;80.80;;;;;;6252587;28;20588;-63
2021/04/24 03:46:33;;;;;;;7.17;5.83;;;8.10;81.40;;;;;;6252614;28;20933;-63
2021/04/24 03:49:35;;;;;;;9.47;6.57;;;8.10;80.70;;;;;;6252097;28;20471;-63
2021/04/24 03:52:38;;;;;;;6.90;5.03;;;8.10;81.20;;;;;;6252235;28;20467;-63
2021/04/24 03:55:41;;;;;;;9.13;7.10;;;8.10;81.50;;;;;;6252228;28;20467;-63
2021/04/24 03:58:43;;;;;;;6.83;6.20;;;8.00;81.80;;;;;;6252641;28;20486;-63
2021/04/24 04:01:45;;;;;;;7.23;6.20;;;8.00;82.10;;;;;;6251748;28;20474;-63
2021/04/24 04:04:47;;;;;;;7.43;6.30;;;8.00;83.50;;;;;;6252003;28;20481;-64
2021/04/24 04:07:50;;;;;;;7.43;6.40;;;8.00;83.60;;;;;;6252093;28;20471;-63
2021/04/24 04:10:53;;;;;;;10.67;6.40;;;8.00;82.60;;;;;;6251923;28;20467;-63
2021/04/24 04:13:56;;;;;;;10.23;6.37;;;8.00;82.50;;;;;;6252037;28;20470;-63
2021/04/24 04:16:58;;;;;;;8.77;5.63;;;7.90;82.70;;;;;;6251450;28;20467;-64
2021/04/24 04:20:01;;;;;;;8.77;6.50;;;7.90;83.00;;;;;;6251853;28;20544;-63
2021/04/24 04:23:03;;;;;;;7.03;5.73;;;8.00;83.30;;;;;;6251110;28;20550;-63
2021/04/24 04:26:06;;;;;;;12.30;7.00;;;8.00;83.00;;;;;;6251667;28;20528;-63
2021/04/24 04:29:09;;;;;;;13.17;7.87;;;8.00;82.90;;;;;;6251168;28;20475;-63
2021/04/24 04:32:11;;;;;;;13.07;9.07;;;8.00;83.00;;;;;;6251603;28;20471;-63
2021/04/24 04:35:14;;;;;;;12.87;10.10;;;7.90;83.70;;;;;;6251169;28;20815;-63
2021/04/24 04:38:17;;;;;;;12.17;9.30;;;7.90;82.70;;;;;;6251322;28;20478;-63
2021/04/24 04:41:20;;;;;;;11.63;7.93;;;7.90;82.70;;;;;;6251190;28;20475;-63
2021/04/24 04:44:24;;;;;;;10.23;7.83;;;7.90;83.00;;;;;;6250528;28;20550;-63
2021/04/24 04:47:26;;;;;;;9.30;8.27;;;7.90;82.90;;;;;;6250853;28;20970;-63
2021/04/24 04:50:31;;;;;;;12.27;9.50;;;8.00;83.20;;;;;;6251154;28;20471;-63
2021/04/24 04:53:34;;;;;;;11.20;8.53;;;8.00;83.00;;;;;;6250987;28;20485;-63
2021/04/24 04:56:57;;;;;;;8.67;7.77;;;8.00;82.80;;;;;;6250764;28;20475;-63
2021/04/24 04:59:59;;;;;;;9.67;7.90;;;8.00;83.40;;;;;;6250314;28;20815;-65
2021/04/24 05:03:01;;;;;;;8.43;6.87;;;8.00;82.50;;;;;;6250532;28;20482;-64
2021/04/24 05:06:04;;;;;;;8.03;7.27;;;8.20;82.20;;;;;;6250345;28;20574;-63
2021/04/24 05:09:06;;;;;;;8.17;6.30;;;8.40;81.10;;;;;;6245957;28;20475;-64
2021/04/24 05:12:09;;;;;;;8.97;6.40;;;8.60;81.00;;;;;;6250423;28;20494;-64
2021/04/24 05:15:13;;;;;;;11.57;7.20;;;8.80;80.20;;;;;;6249629;28;20471;-64
2021/04/24 05:18:15;;;;;;;11.90;7.40;;;9.00;79.50;;;;;;6249554;28;20473;-64
2021/04/24 05:21:17;;;;;;;7.50;6.80;;;9.30;78.00;;;;;;6249210;28;20474;-64
2021/04/24 05:24:19;;;;;;;10.43;6.90;;;9.60;77.10;;;;;;6248791;28;20812;-64
2021/04/24 05:27:22;;;;;;;8.57;6.20;;;10.00;74.40;;;;;;6248592;28;20842;-64
2021/04/24 05:30:24;;;;;;;10.03;6.23;;;10.30;72.60;;;;;;6248843;28;20463;-64
2021/04/24 05:33:27;;;;;;;9.63;6.60;;;10.80;71.00;;;;;;6249112;28;20471;-65
2021/04/24 05:36:29;;;;;;;8.00;5.80;;;11.30;69.00;;;;;;6248882;28;20494;-65
2021/04/24 05:39:31;;;;;;;8.27;6.33;;;11.80;66.50;;;;;;6249340;28;20505;-65
2021/04/24 05:42:35;;;;;;;6.47;5.87;;;12.40;64.70;;;;;;6248800;28;20474;-64
2021/04/24 05:45:37;;;;;;;7.77;7.03;;;13.00;61.90;;;;;;6249021;28;20481;-64
2021/04/24 05:48:39;;;;;;;7.57;6.43;;;13.60;59.70;;;;;;6246337;28;20470;-64
2021/04/24 05:51:42;;;;;;;10.93;6.40;;;14.20;57.80;;;;;;6249099;28;20459;-64
2021/04/24 05:54:44;;;;;;;6.67;5.57;;;14.80;56.10;;;;;;6248612;28;20463;-65
2021/04/24 05:57:47;;;;;;;7.13;6.07;;;15.30;54.30;;;;;;6248106;28;20811;-65
2021/04/24 06:00:49;;;;;;;6.70;6.03;;;15.70;52.00;;;;;;6247837;28;20780;-64
2021/04/24 06:03:53;;;;;;;8.07;5.90;;;16.30;50.20;;;;;;6248762;28;20967;-64
2021/04/24 06:06:56;;;;;;;6.17;5.20;;;17.00;49.20;;;;;;6249170;28;20471;-64
2021/04/24 06:09:59;;;;;;;6.63;6.03;;;17.50;46.50;;;;;;6249270;28;20471;-64
2021/04/24 06:13:02;;;;;;;7.50;5.17;;;18.10;45.10;;;;;;6249497;28;20474;-64
2021/04/24 06:16:04;;;;;;;8.00;5.60;;;18.60;43.20;;;;;;6249124;28;20471;-64
2021/04/24 06:19:06;;;;;;;7.37;5.57;;;19.20;41.60;;;;;;6249065;28;20471;-66
2021/04/24 06:22:08;;;;;;;6.67;6.07;;;19.50;39.70;;;;;;6224104;28;20463;-64
2021/04/24 06:25:13;;;;;;;8.10;6.60;;;19.80;39.10;;;;;;6224559;28;20244;-64
2021/04/24 06:28:16;;;;;;;8.93;6.20;;;20.50;38.20;;;;;;6224309;28;20209;-64
2021/04/24 06:31:18;;;;;;;7.63;5.50;;;21.10;36.20;;;;;;6224501;28;20209;-64
2021/04/24 06:34:20;;;;;;;7.33;6.63;;;21.60;34.60;;;;;;6224670;28;20236;-65
2021/04/24 06:37:26;;;;;;;7.73;6.13;;;21.80;33.70;;;;;;6224365;28;20233;-65
2021/04/24 06:40:29;;;;;;;8.00;6.40;;;22.20;32.90;;;;;;6224869;28;20246;-65
2021/04/24 06:43:32;;;;;;;6.80;6.10;;;22.80;32.20;;;;;;6224295;28;20598;-65
2021/04/24 06:46:34;;;;;;;7.13;6.43;;;22.90;31.40;;;;;;6224554;28;20229;-66
2021/04/24 06:49:36;;;;;;;6.40;5.80;;;23.00;31.30;;;;;;6224775;28;20239;-65
2021/04/24 06:52:39;;;;;;;7.00;6.40;;;23.50;30.20;;;;;;6224559;28;20235;-65
2021/04/24 06:55:41;;;;;;;7.23;6.53;;;24.40;29.80;;;;;;6224213;28;20243;-65
2021/04/24 06:58:44;;;;;;;7.83;6.37;;;24.60;29.20;;;;;;6224731;28;20236;-65
2021/04/24 07:01:46;;;;;;;10.47;7.23;;;24.90;28.70;;;;;;6223900;28;20232;-66
2021/04/24 07:04:49;;;;;;;8.20;7.00;;;25.80;28.10;;;;;;6224037;28;20252;-66
2021/04/24 07:07:53;;;;;;;7.70;7.00;;;26.10;27.50;;;;;;6225197;28;20231;-65
2021/04/24 07:10:55;;;;;;;10.23;7.37;;;26.20;27.10;;;;;;6234543;28;20220;-65
2021/04/24 07:13:58;;;;;;;8.80;7.50;;;27.20;26.70;;;;;;6252437;28;20216;-65
2021/04/24 07:17:01;;;;;;;8.43;7.30;;;27.70;26.00;;;;;;6252822;28;20242;-65
2021/04/24 07:20:04;;;;;;;8.50;7.70;;;28.20;25.10;;;;;;6250003;28;20303;-65
2021/04/24 07:23:07;;;;;;;7.80;7.00;;;28.90;24.60;;;;;;6252256;28;20227;-61
2021/04/24 07:26:09;;;;;;;8.30;7.00;;;29.60;24.20;;;;;;6252562;28;20230;-61
2021/04/24 07:29:12;;;;;;;8.20;7.10;;;30.00;23.50;;;;;;6252179;28;20675;-61
2021/04/24 07:32:15;;;;;;;8.03;7.23;;;30.40;23.10;;;;;;6252611;28;20297;-62
2021/04/24 07:35:17;;;;;;;8.27;6.93;;;31.10;22.10;;;;;;6252612;28;20306;-61
2021/04/24 07:38:20;;;;;;;8.07;7.20;;;31.30;22.00;;;;;;6252658;28;20254;-61
2021/04/24 07:41:22;;;;;;;9.63;8.50;;;31.80;21.40;;;;;;6252641;28;20246;-61
2021/04/24 07:44:25;;;;;;;7.80;7.10;;;32.30;21.00;;;;;;6252502;28;20547;-61
2021/04/24 07:47:27;;;;;;;7.35;6.70;;;33.00;20.70;;;;;;6252577;28;20234;-63
2021/04/24 07:50:30;;;;;;;8.73;7.83;;;31.90;20.50;;;;;;6252415;28;20281;-63
2021/04/24 07:53:32;;;;;;;8.07;7.37;;;28.70;22.90;;;;;;6252199;28;20242;-60
2021/04/24 07:56:34;;;;;;;8.47;7.47;;;28.50;22.60;;;;;;6252239;28;20231;-60
2021/04/24 07:59:37;;;;;;;8.00;7.20;;;27.40;23.60;;;;;;6252022;28;20220;-61
2021/04/24 08:02:39;;;;;;;11.93;7.77;;;28.50;23.50;;;;;;6251902;28;20239;-61
2021/04/24 08:05:41;;;;;;;7.87;7.20;;;29.50;23.00;;;;;;6251988;28;20235;-61
2021/04/24 08:08:43;;;;;;;7.65;6.88;;;32.20;21.40;;;;;;6252006;28;20380;-61
2021/04/24 08:11:45;;;;;;;8.98;8.07;;;33.90;19.90;;;;;;6251966;28;20238;-61
2021/04/24 08:14:48;;;;;;;8.00;7.32;;;35.10;19.20;;;;;;6251735;28;20228;-62
2021/04/24 08:17:51;;;;;;;8.23;7.63;;;36.40;19.20;;;;;;6251754;28;20234;-62
2021/04/24 08:20:53;;;;;;;8.23;7.38;;;36.90;17.80;;;;;;6245077;28;20318;-63
2021/04/24 08:23:59;;;;;;;7.63;6.88;;;37.80;17.60;;;;;;6247894;28;20246;-62
2021/04/24 08:27:01;;;;;;;8.23;7.53;;;38.30;17.10;;;;;;6249980;28;20239;-62
2021/04/24 08:30:08;;;;;;;8.05;7.45;;;38.40;17.00;;;;;;6249614;28;20223;-62
2021/04/24 08:33:10;;;;;;;7.70;7.05;;;37.80;17.00;;;;;;6249653;28;20235;-62
2021/04/24 08:36:13;;;;;;;8.07;7.40;;;38.70;17.60;;;;;;6247255;28;20223;-62
2021/04/24 08:39:15;;;;;;;9.43;7.45;;;39.00;16.50;;;;;;6249489;28;20250;-62
2021/04/24 08:42:17;;;;;;;9.02;7.97;;;39.50;16.10;;;;;;6249456;28;20219;-62
2021/04/24 08:45:22;;;;;;;7.78;7.18;;;39.10;16.30;;;;;;6249407;28;20235;-62
2021/04/24 08:48:25;;;;;;;9.32;8.63;;;38.30;16.30;;;;;;6249223;28;20235;-62
2021/04/24 08:51:29;;;;;;;7.95;7.20;;;36.40;17.70;;;;;;6249017;28;20224;-65
2021/04/24 08:54:32;;;;;;;12.40;9.15;;;37.00;17.40;;;;;;6243335;28;20228;-60
2021/04/24 08:57:36;;;;;;;8.52;7.72;;;37.40;17.30;;;;;;6248902;28;20219;-61
2021/04/24 09:00:42;;;;;;;9.20;8.07;;;37.90;17.00;;;;;;6249116;28;20319;-61
2021/04/24 09:03:44;;;;;;;9.05;8.25;;;37.50;17.00;;;;;;6250275;28;20239;-60
2021/04/24 09:06:47;;;;;;;9.13;8.23;;;36.80;17.30;;;;;;6250184;28;20250;-61
2021/04/24 09:09:57;;;;;;;8.82;8.10;;;34.70;18.20;;;;;;6250441;28;20238;-60
2021/04/24 09:12:59;;;;;;;8.77;7.90;;;33.80;18.90;;;;;;6234924;28;20239;-61
2021/04/24 09:16:03;;;;;;;9.52;8.18;;;32.80;19.50;;;;;;6225197;28;20238;-63
2021/04/24 09:19:27;;;;;;;9.98;8.98;;;31.50;20.60;;;;;;6224449;28;20246;-64
2021/04/24 09:22:29;;;;;;;10.80;9.70;;;29.80;21.50;;;;;;6224683;28;20251;-63
2021/04/24 09:25:37;;;;;;;9.87;9.07;;;28.30;22.90;;;;;;6224252;28;20699;-63
2021/04/24 09:28:41;;;;;;;11.40;9.40;;;27.40;23.90;;;;;;6227945;28;20230;-63
2021/04/24 09:31:44;;;;;;;10.20;8.90;;;26.70;24.30;;;;;;6247621;28;20227;-63
2021/04/24 09:34:48;;;;;;;12.17;9.07;;;25.80;25.20;;;;;;6248625;28;20246;-63
2021/04/24 09:37:58;;;;;;;10.23;8.70;;;25.00;26.30;;;;;;6248849;28;20682;-62
2021/04/24 09:41:08;;;;;;;12.27;8.93;;;23.40;27.80;;;;;;6248367;28;20569;-62
2021/04/24 09:44:13;;;;;;;9.00;8.10;;;22.60;28.70;;;;;;6248973;28;20235;-61
2021/04/24 09:47:16;;;;;;;11.37;8.77;;;22.20;29.40;;;;;;6248331;28;20224;-61
2021/04/24 09:50:20;;;;;;;9.73;8.00;;;21.60;29.90;;;;;;6248487;28;20681;-61
2021/04/24 09:53:24;;;;;;;12.10;9.13;;;21.40;30.40;;;;;;6248341;28;20258;-62
2021/04/24 09:56:27;;;;;;;12.33;9.17;;;21.00;31.00;;;;;;6247041;28;20548;-59
2021/04/24 09:59:30;;;;;;;9.20;8.20;;;20.30;32.30;;;;;;6248180;28;20232;-59
2021/04/24 10:02:35;;;;;;;9.17;8.27;;;20.40;33.10;;;;;;6248121;28;20315;-58
2021/04/24 10:05:37;;;;;;;9.50;8.60;;;20.50;33.00;;;;;;6245201;28;20323;-59
2021/04/24 10:08:40;;;;;;;11.57;9.50;;;20.70;32.90;;;;;;6248239;28;20565;-63
2021/04/24 10:11:43;;;;;;;10.73;8.67;;;20.60;33.00;;;;;;6248264;28;20232;-63
2021/04/24 10:14:48;;;;;;;11.00;8.70;;;20.60;33.30;;;;;;6248142;28;20232;-65
2021/04/24 10:17:54;;;;;;;13.53;9.20;;;20.10;34.00;;;;;;6248255;28;20231;-66
2021/04/24 10:20:56;;;;;;;8.77;7.73;;;20.20;33.90;;;;;;6248100;28;20255;-61
2021/04/24 10:23:59;;;;;;;10.63;8.37;;;19.70;34.00;;;;;;6248069;28;20247;-66
2021/04/24 10:27:02;;;;;;;12.87;9.37;;;19.80;35.00;;;;;;6248051;28;20584;-64
2021/04/24 10:30:06;;;;;;;11.10;10.10;;;20.30;34.30;;;;;;6247965;28;20215;-66
2021/04/24 10:33:10;;;;;;;12.17;8.37;;;20.60;33.60;;;;;;6247796;28;20262;-64
2021/04/24 10:36:12;;;;;;;9.40;8.43;;;21.10;33.30;;;;;;6248228;28;20250;-64
2021/04/24 10:39:20;;;;;;;12.80;8.77;;;21.20;33.10;;;;;;6247709;28;20253;-64
2021/04/24 10:42:25;;;;;;;11.37;10.10;;;21.20;32.50;;;;;;6248521;28;20236;-63
2021/04/24 10:45:28;;;;;;;10.10;8.60;;;21.10;32.40;;;;;;6252439;28;20232;-65
2021/04/24 10:48:32;;;;;;;10.57;9.57;;;20.50;34.10;;;;;;6252628;28;20745;-65
2021/04/24 10:51:54;;;;;;;10.73;9.63;;;20.40;33.40;;;;;;6252478;28;20693;-63
2021/04/24 10:55:17;;;;;;;10.00;8.90;;;20.40;33.10;;;;;;6252528;28;20285;-65
2021/04/24 10:58:21;;;;;;;12.43;10.10;;;19.70;34.80;;;;;;6251819;28;20217;-64
2021/04/24 11:01:24;;;;;;;10.50;9.27;;;19.40;35.40;;;;;;6252147;28;20700;-66
2021/04/24 11:04:48;;;;;;;10.80;9.10;;;19.30;35.80;;;;;;6252077;28;20224;-62
2021/04/24 11:08:25;;;;;;;10.27;8.30;;;19.70;34.80;;;;;;6252376;28;20695;-61
2021/04/24 11:11:29;;;;;;;13.37;9.70;;;19.90;35.00;;;;;;6252275;28;20238;-61
2021/04/24 11:14:32;;;;;;;11.47;10.20;;;19.90;34.60;;;;;;6251395;28;20266;-62
2021/04/24 11:17:35;;;;;;;11.70;9.57;;;19.90;34.80;;;;;;6252771;28;20726;-64
2021/04/24 11:20:54;;;;;;;11.80;10.47;;;19.60;35.60;;;;;;6252132;28;20290;-65
2021/04/24 11:23:58;;;;;;;11.20;9.97;;;19.80;35.20;;;;;;6250707;28;20245;-62
2021/04/24 11:27:01;;;;;;;15.93;9.10;;;19.80;34.90;;;;;;6251748;28;20315;-63
2021/04/24 11:30:03;;;;;;;9.67;8.70;;;20.10;35.00;;;;;;6252818;28;20243;-63
2021/04/24 11:33:30;;;;;;;10.70;9.57;;;20.10;33.90;;;;;;6252613;28;20242;-61
2021/04/24 11:36:33;;;;;;;9.73;8.70;;;20.50;34.30;;;;;;6248748;28;20224;-62
2021/04/24 11:39:35;;;;;;;11.23;8.43;;;20.70;33.70;;;;;;6250212;28;20228;-60
2021/04/24 11:42:49;;;;;;;11.63;9.10;;;21.20;33.90;;;;;;6250410;28;20236;-61
2021/04/24 11:46:02;;;;;;;8.50;7.60;;;21.30;32.80;;;;;;6250282;28;20244;-61
2021/04/24 11:49:09;;;;;;;11.87;10.57;;;21.50;32.70;;;;;;6250069;28;20568;-61
2021/04/24 11:52:12;;;;;;;15.23;10.13;;;21.60;32.40;;;;;;6249696;28;20227;-62
2021/04/24 11:55:18;;;;;;;14.03;8.77;;;20.90;33.50;;;;;;6249713;28;20235;-61
2021/04/24 11:58:21;;;;;;;11.70;8.83;;;20.90;33.10;;;;;;6248453;28;20206;-61
2021/04/24 12:01:27;;;;;;;12.00;9.27;;;20.40;32.90;;;;;;6247839;28;20319;-61
2021/04/24 12:04:33;;;;;;;8.27;7.47;;;20.10;33.00;;;;;;6247871;28;20252;-60
2021/04/24 12:07:40;;;;;;;9.73;7.30;;;20.20;32.50;;;;;;6247771;28;20229;-60
2021/04/24 12:10:43;;;;;;;8.13;7.33;;;19.90;32.20;;;;;;6249068;28;20579;-61
2021/04/24 12:13:48;;;;;;;9.33;7.47;;;20.20;31.80;;;;;;6250955;28;20573;-61
2021/04/24 12:16:51;;;;;;;9.63;7.00;;;20.20;31.60;;;;;;6251868;28;20676;-61
2021/04/24 12:19:53;;;;;;;11.20;7.70;;;20.20;32.40;;;;;;6251651;28;20234;-61
2021/04/24 12:22:58;;;;;;;8.37;7.50;;;20.40;32.00;;;;;;6251822;28;20235;-61
2021/04/24 12:26:01;;;;;;;8.90;7.23;;;20.20;32.80;;;;;;6251522;28;20224;-61
2021/04/24 12:29:04;;;;;;;10.17;7.47;;;20.20;33.50;;;;;;6251825;28;20228;-61
2021/04/24 12:32:12;;;;;;;11.40;8.60;;;20.40;32.60;;;;;;6251239;28;20224;-61
2021/04/24 12:35:20;;;;;;;8.70;6.47;;;20.50;32.20;;;;;;6251661;28;20235;-61
2021/04/24 12:38:25;;;;;;;9.20;7.10;;;20.50;31.50;;;;;;6251013;28;20228;-61
2021/04/24 12:41:27;;;;;;;8.73;6.47;;;20.70;30.20;;;;;;6251390;28;20703;-61
2021/04/24 12:44:30;;;;;;;9.53;7.27;;;20.70;30.10;;;;;;6250870;28;20799;-61
2021/04/24 12:47:34;;;;;;;7.10;5.83;;;20.70;30.40;;;;;;6251255;28;20232;-61
2021/04/24 12:50:39;;;;;;;6.40;5.83;;;20.90;29.90;;;;;;6250948;28;20240;-61
2021/04/24 12:53:44;;;;;;;9.40;6.83;;;21.00;29.90;;;;;;6250957;28;20247;-60
2021/04/24 12:56:48;;;;;;;8.30;7.07;;;20.80;29.80;;;;;;6251013;28;20231;-60
2021/04/24 12:59:58;;;;;;;6.97;6.37;;;20.70;30.60;;;;;;6251103;28;20248;-60
2021/04/24 13:03:00;;;;;;;7.43;5.93;;;20.60;30.50;;;;;;6250733;28;20235;-60
2021/04/24 13:06:12;;;;;;;7.70;6.90;;;20.30;30.00;;;;;;6250616;28;20236;-60
2021/04/24 13:09:19;;;;;;;8.10;6.87;;;20.20;30.50;;;;;;6250420;28;20229;-60
2021/04/24 13:12:21;;;;;;;7.90;5.90;;;20.40;31.00;;;;;;6250720;28;20577;-60
2021/04/24 13:15:24;;;;;;;7.50;6.37;;;20.40;31.40;;;;;;6250540;28;20247;-60
2021/04/24 13:18:29;;;;;;;7.60;6.90;;;20.30;31.30;;;;;;6250696;28;20235;-61
2021/04/24 13:21:32;;;;;;;8.20;5.90;;;20.00;31.60;;;;;;6250395;28;20268;-61
2021/04/24 13:24:43;;;;;;;7.53;6.30;;;19.90;32.20;;;;;;6249978;28;20243;-60
2021/04/24 13:27:48;;;;;;;8.60;6.47;;;20.10;32.40;;;;;;6250559;28;20375;-60
2021/04/24 13:30:50;;;;;;;6.80;5.77;;;20.10;32.10;;;;;;6249842;28;20240;-65
2021/04/24 13:33:52;;;;;;;6.33;5.73;;;19.90;32.90;;;;;;6245356;28;20747;-64
2021/04/24 13:36:57;;;;;;;8.43;6.83;;;20.00;32.00;;;;;;6249775;28;20242;-64
2021/04/24 13:40:02;;;;;;;8.40;6.50;;;20.20;32.40;;;;;;6249923;28;20232;-65
2021/04/24 13:43:04;;;;;;;5.70;5.10;;;20.00;32.10;;;;;;6249589;28;20574;-64
2021/04/24 13:46:24;;;;;;;8.20;6.40;;;20.10;32.30;;;;;;6249732;28;20557;-64
2021/04/24 13:49:27;;;;;;;6.63;5.93;;;20.20;32.10;;;;;;6250011;28;20219;-64
2021/04/24 13:52:33;;;;;;;8.03;6.50;;;20.30;32.50;;;;;;6250115;28;20228;-65
2021/04/24 13:55:36;;;;;;;8.50;6.17;;;19.80;32.90;;;;;;6249314;28;20638;-63
2021/04/24 13:58:38;;;;;;;7.13;6.30;;;19.80;33.40;;;;;;6249722;28;20235;-63
2021/04/24 14:01:41;;;;;;;9.80;7.23;;;19.80;33.50;;;;;;6249063;28;20708;-63
2021/04/24 14:04:44;;;;;;;6.60;6.00;;;19.90;33.70;;;;;;6249767;28;20228;-63
2021/04/24 14:07:46;;;;;;;7.30;5.90;;;19.90;33.60;;;;;;6249761;28;20220;-64
2021/04/24 14:10:50;;;;;;;7.40;6.73;;;19.90;33.40;;;;;;6249376;28;20679;-64
2021/04/24 14:13:53;;;;;;;7.37;6.60;;;19.80;33.80;;;;;;6249670;28;20228;-63
2021/04/24 14:16:56;;;;;;;7.27;6.63;;;19.80;33.50;;;;;;6249467;28;20224;-64
2021/04/24 14:19:58;;;;;;;9.07;6.70;;;19.80;33.50;;;;;;6255114;28;20228;-64
2021/04/24 14:23:00;;;;;;;8.00;6.20;;;19.90;33.20;;;;;;6254419;28;20239;-64
2021/04/24 14:26:04;;;;;;;5.87;5.27;;;20.10;33.40;;;;;;6254253;28;20390;-65
2021/04/24 14:29:07;;;;;;;6.90;5.67;;;20.10;33.40;;;;;;6254036;28;20220;-64
2021/04/24 14:32:09;;;;;;;8.80;5.57;;;19.90;33.30;;;;;;6254589;28;20238;-64
2021/04/24 14:35:17;;;;;;;6.80;6.10;;;20.00;33.30;;;;;;6244768;28;20311;-64
2021/04/24 14:38:19;;;;;;;6.40;5.73;;;19.80;33.40;;;;;;6254262;28;20228;-65
2021/04/24 14:41:22;;;;;;;9.07;6.10;;;19.90;33.70;;;;;;6253984;28;20707;-65
2021/04/24 14:44:25;;;;;;;7.17;6.47;;;20.00;33.30;;;;;;6254042;28;20234;-64
2021/04/24 14:47:27;;;;;;;8.17;6.20;;;19.80;32.90;;;;;;6254056;28;20672;-65
2021/04/24 14:50:29;;;;;;;6.20;5.70;;;19.70;33.20;;;;;;6253850;28;20579;-64
2021/04/24 14:53:32;;;;;;;6.40;5.40;;;19.30;34.10;;;;;;6253963;28;20250;-64
2021/04/24 14:56:35;;;;;;;7.60;6.43;;;19.30;34.10;;;;;;6253703;28;20228;-63
2021/04/24 14:59:37;;;;;;;7.60;5.70;;;19.20;34.40;;;;;;6253455;28;20223;-63
2021/04/24 15:02:40;;;;;;;9.07;6.17;;;19.10;34.20;;;;;;6253554;28;20312;-64
2021/04/24 15:05:43;;;;;;;6.23;5.37;;;19.30;34.30;;;;;;6253439;28;20666;-65
2021/04/24 15:08:46;;;;;;;5.87;5.27;;;19.40;34.50;;;;;;6253226;28;20232;-64
2021/04/24 15:11:51;;;;;;;5.53;5.03;;;19.60;33.70;;;;;;6253547;28;20228;-64
2021/04/24 15:14:53;;;;;;;6.50;4.90;;;19.80;33.70;;;;;;6252874;28;20683;-65
2021/04/24 15:17:56;;;;;;;5.50;5.00;;;19.90;33.70;;;;;;6253413;28;20228;-65
2021/04/24 15:20:59;;;;;;;6.63;6.00;;;20.00;33.70;;;;;;6253206;28;20232;-64
2021/04/24 15:24:01;;;;;;;7.60;5.30;;;19.70;33.50;;;;;;6252849;28;20240;-64
2021/04/24 15:27:04;;;;;;;6.77;5.83;;;19.60;34.00;;;;;;6253355;28;20231;-63
2021/04/24 15:30:09;;;;;;;5.30;4.80;;;19.60;34.00;;;;;;6252505;28;20307;-65
2021/04/24 15:33:12;;;;;;;6.37;5.77;;;19.50;34.30;;;;;;6252890;28;20696;-65
2021/04/24 15:36:15;;;;;;;5.10;4.63;;;19.70;33.80;;;;;;6252507;28;20224;-65
2021/04/24 15:39:18;;;;;;;7.27;5.40;;;19.90;33.80;;;;;;6252806;28;20618;-63
2021/04/24 15:42:23;;;;;;;5.60;5.00;;;19.90;33.70;;;;;;6252593;28;20236;-64
2021/04/24 15:45:25;;;;;;;8.53;6.90;;;19.90;33.70;;;;;;6252667;28;20310;-64
2021/04/24 15:48:27;;;;;;;12.30;7.67;;;19.90;34.10;;;;;;6252263;28;20285;-64
2021/04/24 15:51:32;;;;;;;8.90;6.07;;;19.80;33.70;;;;;;6252271;28;20392;-63
2021/04/24 15:54:35;;;;;;;5.57;4.60;;;19.70;33.70;;;;;;6251929;28;20232;-63
2021/04/24 15:57:45;;;;;;;8.90;5.30;;;19.80;33.70;;;;;;6252281;28;20571;-63